createdAt,value
2018-05-08T00:01:54.980Z,30.80
2018-05-08T00:04:23.235Z,26.27
2018-05-08T00:06:52.708Z,31.07
2018-05-08T00:09:21.725Z,30.63
2018-05-08T00:11:50.741Z,30.67
2018-05-08T00:14:18.965Z,30.07
2018-05-08T00:16:47.302Z,31.10
2018-05-08T00:19:15.514Z,32.70
2018-05-08T00:21:43.743Z,27.33
2018-05-08T00:24:12.007Z,34.67
2018-05-08T00:26:41.028Z,28.27
2018-05-08T00:29:09.821Z,26.67
2018-05-08T00:31:38.039Z,22.50
2018-05-08T00:34:07.127Z,22.67
2018-05-08T00:36:35.347Z,22.87
2018-05-08T00:39:04.369Z,25.57
2018-05-08T00:41:32.581Z,26.80
2018-05-08T00:44:00.823Z,24.90
2018-05-08T00:46:29.206Z,25.87
2018-05-08T00:48:57.435Z,28.70
2018-05-08T00:51:26.450Z,25.30
2018-05-08T00:53:55.301Z,25.60
2018-05-08T00:56:23.565Z,25.97
2018-05-08T00:58:51.805Z,22.50
2018-05-08T01:01:21.025Z,25.73
2018-05-08T01:03:50.055Z,23.97
2018-05-08T01:06:19.035Z,24.30
2018-05-08T01:08:47.228Z,29.47
2018-05-08T01:11:16.197Z,27.13
2018-05-08T01:13:44.429Z,27.37
2018-05-08T01:16:12.633Z,25.77
2018-05-08T01:18:43.435Z,28.80
2018-05-08T01:21:16.621Z,28.00
2018-05-08T01:23:48.550Z,29.10
2018-05-08T01:26:20.446Z,28.67
2018-05-08T01:28:55.017Z,29.93
2018-05-08T01:31:24.142Z,30.03
2018-05-08T01:33:55.037Z,29.90
2018-05-08T01:36:25.051Z,28.37
2018-05-08T01:38:53.646Z,28.07
2018-05-08T01:41:22.065Z,26.67
2018-05-08T01:43:50.292Z,26.47
2018-05-08T01:46:18.526Z,27.67
2018-05-08T01:48:46.749Z,32.87
2018-05-08T01:51:15.008Z,29.53
2018-05-08T01:53:44.044Z,31.47
2018-05-08T01:56:12.272Z,34.73
2018-05-08T01:58:40.504Z,37.50
2018-05-08T02:01:27.418Z,31.53
2018-05-08T02:04:01.420Z,30.43
2018-05-08T02:06:33.308Z,30.67
2018-05-08T02:09:01.574Z,34.00
2018-05-08T02:11:29.810Z,41.03
2018-05-08T02:13:58.848Z,42.83
2018-05-08T02:16:27.060Z,46.13
2018-05-08T02:18:55.313Z,44.00
2018-05-08T02:21:23.571Z,41.83
2018-05-08T02:23:52.590Z,39.80
2018-05-08T02:26:20.790Z,35.87
2018-05-08T02:28:49.428Z,33.23
2018-05-08T02:31:17.693Z,32.70
2018-05-08T02:33:45.927Z,30.03
2018-05-08T02:36:16.012Z,29.77
2018-05-08T02:38:44.916Z,32.63
2018-05-08T02:41:13.112Z,38.17
2018-05-08T02:43:41.537Z,31.30
2018-05-08T02:46:09.748Z,30.23
2018-05-08T02:48:37.953Z,28.17
2018-05-08T02:51:07.121Z,27.87
2018-05-08T02:53:35.412Z,27.77
2018-05-08T02:56:03.647Z,26.73
2018-05-08T02:58:31.991Z,27.47
2018-05-08T03:01:00.980Z,29.53
2018-05-08T03:03:31.179Z,27.10
2018-05-08T03:05:59.423Z,26.93
2018-05-08T03:08:29.005Z,26.27
2018-05-08T03:10:58.013Z,29.00
2018-05-08T03:13:26.996Z,26.33
2018-05-08T03:15:55.292Z,27.63
2018-05-08T03:18:24.248Z,26.40
2018-05-08T03:20:52.486Z,24.13
2018-05-08T03:23:20.744Z,26.17
2018-05-08T03:25:50.430Z,26.80
2018-05-08T03:28:19.895Z,32.60
2018-05-08T03:30:48.592Z,26.17
2018-05-08T03:33:16.830Z,28.10
2018-05-08T03:35:45.058Z,28.70
2018-05-08T03:38:14.851Z,27.70
2018-05-08T03:40:43.097Z,29.70
2018-05-08T03:43:11.775Z,33.97
2018-05-08T03:45:40.736Z,27.20
2018-05-08T03:48:08.986Z,29.33
2018-05-08T03:50:37.937Z,32.47
2018-05-08T03:53:07.783Z,31.90
2018-05-08T03:55:36.196Z,26.83
2018-05-08T03:58:04.431Z,29.90
2018-05-08T04:00:44.591Z,27.13
2018-05-08T04:03:25.812Z,26.97
2018-05-08T04:05:58.783Z,27.23
2018-05-08T04:08:33.222Z,25.83
2018-05-08T04:11:01.480Z,26.77
2018-05-08T04:13:29.853Z,26.40
2018-05-08T04:15:58.087Z,29.30
2018-05-08T04:18:26.271Z,26.77
2018-05-08T04:20:55.252Z,24.73
2018-05-08T04:23:23.481Z,23.27
2018-05-08T04:25:52.072Z,24.27
2018-05-08T04:28:21.109Z,24.23
2018-05-08T04:30:49.401Z,26.47
2018-05-08T04:33:17.655Z,22.60
2018-05-08T04:35:46.921Z,22.87
2018-05-08T04:38:15.139Z,22.33
2018-05-08T04:40:43.417Z,25.00
2018-05-08T04:43:12.501Z,21.50
2018-05-08T04:45:42.257Z,22.03
2018-05-08T04:48:10.521Z,23.80
2018-05-08T04:50:38.772Z,22.30
2018-05-08T04:53:08.483Z,20.97
2018-05-08T04:55:38.352Z,21.67
2018-05-08T04:58:06.590Z,20.00
2018-05-08T05:00:34.853Z,19.70
2018-05-08T05:03:03.169Z,21.27
2018-05-08T05:05:31.441Z,23.00
2018-05-08T05:08:00.399Z,18.87
2018-05-08T05:10:30.135Z,18.83
2018-05-08T05:12:59.134Z,17.13
2018-05-08T05:15:28.247Z,17.50
2018-05-08T05:17:57.378Z,19.80
2018-05-08T05:20:25.860Z,18.03
2018-05-08T05:22:54.077Z,16.47
2018-05-08T05:25:22.318Z,17.67
2018-05-08T05:27:52.190Z,17.47
2018-05-08T05:30:21.357Z,16.70
2018-05-08T05:32:51.136Z,19.47
2018-05-08T05:35:19.542Z,17.40
2018-05-08T05:37:47.779Z,17.97
2018-05-08T05:40:15.996Z,17.90
2018-05-08T05:42:44.334Z,19.83
2018-05-08T05:45:12.583Z,18.60
2018-05-08T05:47:42.310Z,18.70
2018-05-08T05:50:11.443Z,19.43
2018-05-08T05:52:39.807Z,19.60
2018-05-08T05:55:08.033Z,18.37
2018-05-08T05:57:36.265Z,19.87
2018-05-08T06:00:04.570Z,19.70
2018-05-08T06:02:33.154Z,18.97
2018-05-08T06:05:01.753Z,17.30
2018-05-08T06:07:29.950Z,18.67
2018-05-08T06:09:58.966Z,16.60
2018-05-08T06:12:27.178Z,22.13
2018-05-08T06:14:55.382Z,17.57
2018-05-08T06:17:23.607Z,17.53
2018-05-08T06:19:51.833Z,16.57
2018-05-08T06:22:20.144Z,17.20
2018-05-08T06:24:49.218Z,18.17
2018-05-08T06:27:17.435Z,18.00
2018-05-08T06:29:45.689Z,15.90
2018-05-08T06:32:15.139Z,15.30
2018-05-08T06:34:43.440Z,15.40
2018-05-08T06:37:11.896Z,17.87
2018-05-08T06:39:40.233Z,14.23
2018-05-08T06:42:08.555Z,15.60
2018-05-08T06:44:36.919Z,19.37
2018-05-08T06:47:06.457Z,15.97
2018-05-08T06:49:36.419Z,15.13
2018-05-08T06:52:05.473Z,15.00
2018-05-08T06:54:33.717Z,15.97
2018-05-08T06:57:02.047Z,13.37
2018-05-08T06:59:30.345Z,17.40
2018-05-08T07:01:59.329Z,13.50
2018-05-08T07:04:28.493Z,21.60
2018-05-08T07:06:56.709Z,18.27
2018-05-08T07:09:25.095Z,15.80
2018-05-08T07:11:57.005Z,17.57
2018-05-08T07:14:25.738Z,13.47
2018-05-08T07:16:53.999Z,20.27
2018-05-08T07:19:22.465Z,16.70
2018-05-08T07:21:50.774Z,22.27
2018-05-08T07:24:19.000Z,14.13
2018-05-08T07:26:47.255Z,18.90
2018-05-08T07:29:18.726Z,16.40
2018-05-08T07:31:48.219Z,24.50
2018-05-08T07:34:17.278Z,14.60
2018-05-08T07:36:46.200Z,16.23
2018-05-08T07:39:14.549Z,13.77
2018-05-08T07:41:42.833Z,16.10
2018-05-08T07:44:11.180Z,17.53
2018-05-08T07:46:39.420Z,15.87
2018-05-08T07:49:08.388Z,25.67
2018-05-08T07:51:38.199Z,18.17
2018-05-08T07:54:07.253Z,15.10
2018-05-08T07:56:35.537Z,12.53
2018-05-08T07:59:03.915Z,11.80
2018-05-08T08:01:33.439Z,11.17
2018-05-08T08:04:01.674Z,16.20
2018-05-08T08:06:31.537Z,13.87
2018-05-08T08:09:00.376Z,12.20
2018-05-08T08:11:28.998Z,15.87
2018-05-08T08:13:57.229Z,10.80
2018-05-08T08:16:26.187Z,11.73
2018-05-08T08:18:54.421Z,11.60
2018-05-08T08:21:22.679Z,9.70
2018-05-08T08:23:51.727Z,9.57
2018-05-08T08:26:20.823Z,13.07
2018-05-08T08:28:49.163Z,9.47
2018-05-08T08:31:18.181Z,11.10
2018-05-08T08:33:47.125Z,10.83
2018-05-08T08:36:15.402Z,10.47
2018-05-08T08:38:43.650Z,15.07
2018-05-08T08:41:12.557Z,10.03
2018-05-08T08:43:40.815Z,7.13
2018-05-08T08:46:09.403Z,9.07
2018-05-08T08:48:37.809Z,9.63
2018-05-08T08:51:06.038Z,8.03
2018-05-08T08:53:35.200Z,12.57
2018-05-08T08:56:03.983Z,8.47
2018-05-08T08:58:32.369Z,9.70
2018-05-08T09:01:00.598Z,9.30
2018-05-08T09:03:28.884Z,12.70
2018-05-08T09:05:57.163Z,11.90
2018-05-08T09:08:25.380Z,11.17
2018-05-08T09:10:54.463Z,12.17
2018-05-08T09:13:22.698Z,7.30
2018-05-08T09:15:50.923Z,7.17
2018-05-08T09:18:19.142Z,6.37
2018-05-08T09:20:47.417Z,5.90
2018-05-08T09:23:15.835Z,4.30
2018-05-08T09:25:44.111Z,5.43
2018-05-08T09:28:12.491Z,5.73
2018-05-08T09:30:40.706Z,4.97
2018-05-08T09:33:08.969Z,6.60
2018-05-08T09:35:37.197Z,4.47
2018-05-08T09:38:05.446Z,4.47
2018-05-08T09:40:33.723Z,4.07
2018-05-08T09:43:02.881Z,3.10
2018-05-08T09:45:31.145Z,7.33
2018-05-08T09:47:59.341Z,3.10
2018-05-08T09:50:27.584Z,4.73
2018-05-08T09:52:55.877Z,4.13
2018-05-08T09:55:24.633Z,4.97
2018-05-08T09:57:53.275Z,4.37
2018-05-08T10:00:21.747Z,4.90
2018-05-08T10:02:49.957Z,2.43
2018-05-08T10:05:19.691Z,3.27
2018-05-08T10:07:48.641Z,7.23
2018-05-08T10:10:17.514Z,5.20
2018-05-08T10:12:45.710Z,2.90
2018-05-08T10:15:13.913Z,4.10
2018-05-08T10:17:42.970Z,6.57
2018-05-08T10:20:11.237Z,6.57
2018-05-08T10:22:39.517Z,5.30
2018-05-08T10:25:07.704Z,5.67
2018-05-08T10:27:36.004Z,5.80
2018-05-08T10:30:04.187Z,5.75
2018-05-08T10:32:33.253Z,4.22
2018-05-08T10:35:01.438Z,3.23
2018-05-08T10:37:29.660Z,5.03
2018-05-08T10:39:57.962Z,7.10
2018-05-08T10:42:26.180Z,4.30
2018-05-08T10:44:54.354Z,4.80
2018-05-08T10:47:22.610Z,7.40
2018-05-08T10:49:51.093Z,3.43
2018-05-08T10:52:19.330Z,4.53
2018-05-08T10:54:48.366Z,5.72
2018-05-08T10:57:16.576Z,6.62
2018-05-08T10:59:45.495Z,6.18
2018-05-08T11:02:13.824Z,6.72
2018-05-08T11:04:42.033Z,7.28
2018-05-08T11:07:10.390Z,5.35
2018-05-08T11:09:38.729Z,5.47
2018-05-08T11:12:06.957Z,5.68
2018-05-08T11:14:35.145Z,3.97
2018-05-08T11:17:03.478Z,6.35
2018-05-08T11:19:31.697Z,3.53
2018-05-08T11:21:59.877Z,3.75
2018-05-08T11:24:28.421Z,2.72
2018-05-08T11:26:56.635Z,6.47
2018-05-08T11:29:24.881Z,6.47
2018-05-08T11:31:53.111Z,4.40
2018-05-08T11:34:23.009Z,5.22
2018-05-08T11:36:51.299Z,4.53
2018-05-08T11:39:20.518Z,4.28
2018-05-08T11:41:48.935Z,5.43
2018-05-08T11:44:17.309Z,3.83
2018-05-08T11:46:45.548Z,6.20
2018-05-08T11:49:14.501Z,6.15
2018-05-08T11:51:42.726Z,6.97
2018-05-08T11:54:11.003Z,4.53
2018-05-08T11:56:39.932Z,4.15
2018-05-08T11:59:08.173Z,4.20
2018-05-08T12:01:36.512Z,3.87
2018-05-08T12:04:04.727Z,4.40
2018-05-08T12:06:33.845Z,4.57
2018-05-08T12:09:02.053Z,3.40
2018-05-08T12:11:31.846Z,4.55
2018-05-08T12:14:00.044Z,4.50
2018-05-08T12:16:28.241Z,4.35
2018-05-08T12:18:56.485Z,3.65
2018-05-08T12:21:24.755Z,5.57
2018-05-08T12:23:52.940Z,4.05
2018-05-08T12:26:21.338Z,2.90
2018-05-08T12:28:49.564Z,5.25
2018-05-08T12:31:17.871Z,3.67
2018-05-08T12:33:46.152Z,5.28
2018-05-08T12:36:14.386Z,5.85
2018-05-08T12:38:43.412Z,8.70
2018-05-08T12:41:11.620Z,5.47
2018-05-08T12:43:39.984Z,3.97
2018-05-08T12:46:08.220Z,5.28
2018-05-08T12:48:36.662Z,8.85
2018-05-08T12:51:04.912Z,7.07
2018-05-08T12:53:33.112Z,10.07
2018-05-08T12:56:01.404Z,5.50
2018-05-08T12:58:30.416Z,6.37
2018-05-08T13:00:59.426Z,8.48
2018-05-08T13:03:28.427Z,10.65
2018-05-08T13:05:56.641Z,6.72
2018-05-08T13:08:24.935Z,10.50
2018-05-08T13:10:53.222Z,8.90
2018-05-08T13:13:21.590Z,5.32
2018-05-08T13:15:49.801Z,4.87
2018-05-08T13:18:18.775Z,6.90
2018-05-08T13:20:47.000Z,5.90
2018-05-08T13:23:15.193Z,5.65
2018-05-08T13:25:43.807Z,6.20
2018-05-08T13:28:12.065Z,5.45
2018-05-08T13:30:40.510Z,6.72
2018-05-08T13:33:08.743Z,5.43
2018-05-08T13:35:37.018Z,9.15
2018-05-08T13:38:05.245Z,8.30
2018-05-08T13:40:34.283Z,10.35
2018-05-08T13:43:02.545Z,8.25
2018-05-08T13:45:30.739Z,8.00
2018-05-08T13:47:59.826Z,10.45
2018-05-08T13:50:28.804Z,6.65
2018-05-08T13:52:57.079Z,5.12
2018-05-08T13:55:25.325Z,4.62
2018-05-08T13:57:54.427Z,4.60
2018-05-08T14:00:23.400Z,4.28
2018-05-08T14:02:52.578Z,3.70
2018-05-08T14:05:20.766Z,4.05
2018-05-08T14:07:49.048Z,4.97
2018-05-08T14:10:17.245Z,6.20
2018-05-08T14:12:46.294Z,6.90
2018-05-08T14:15:15.275Z,5.53
2018-05-08T14:17:43.580Z,4.37
2018-05-08T14:20:11.875Z,10.00
2018-05-08T14:22:41.165Z,6.28
2018-05-08T14:25:09.400Z,8.77
2018-05-08T14:27:37.657Z,7.45
2018-05-08T14:30:06.802Z,13.60
2018-05-08T14:32:35.191Z,6.70
2018-05-08T14:35:04.000Z,5.87
2018-05-08T14:37:32.208Z,8.50
2018-05-08T14:40:01.356Z,5.05
2018-05-08T14:42:29.828Z,7.60
2018-05-08T14:44:58.710Z,5.18
2018-05-08T14:47:26.929Z,6.40
2018-05-08T14:49:55.127Z,5.95
2018-05-08T14:52:24.132Z,5.25
2018-05-08T14:54:52.439Z,4.22
2018-05-08T14:57:20.726Z,4.78
2018-05-08T14:59:48.925Z,5.87
2018-05-08T15:02:17.756Z,4.18
2018-05-08T15:04:45.992Z,4.22
2018-05-08T15:07:14.223Z,5.12
2018-05-08T15:09:42.643Z,3.40
2018-05-08T15:12:10.910Z,3.83
2018-05-08T15:14:39.569Z,4.57
2018-05-08T15:17:07.804Z,4.40
2018-05-08T15:19:36.273Z,5.55
2018-05-08T15:22:04.590Z,6.90
2018-05-08T15:24:34.103Z,3.62
2018-05-08T15:27:03.169Z,6.22
2018-05-08T15:29:32.179Z,8.32
2018-05-08T15:32:00.523Z,19.98
2018-05-08T15:34:28.743Z,30.02
2018-05-08T15:36:57.722Z,31.87
2018-05-08T15:39:27.442Z,34.25
2018-05-08T15:41:55.665Z,31.40
2018-05-08T15:44:23.910Z,32.47
2018-05-08T15:46:52.964Z,33.60
2018-05-08T15:49:21.879Z,31.50
2018-05-08T15:51:50.112Z,32.97
2018-05-08T15:54:18.370Z,34.80
2018-05-08T15:56:47.416Z,34.07
2018-05-08T15:59:15.626Z,33.17
2018-05-08T16:01:44.056Z,34.33
2018-05-08T16:04:13.002Z,34.07
2018-05-08T16:06:41.249Z,35.07
2018-05-08T16:09:09.613Z,32.40
2018-05-08T16:11:37.899Z,31.67
2018-05-08T16:14:06.149Z,31.40
2018-05-08T16:16:34.437Z,30.17
2018-05-08T16:19:02.720Z,30.87
2018-05-08T16:21:31.501Z,26.70
2018-05-08T16:23:59.734Z,26.93
2018-05-08T16:26:27.973Z,28.00
2018-05-08T16:28:56.199Z,29.40
2018-05-08T16:31:25.341Z,28.27
2018-05-08T16:33:53.778Z,29.90
2018-05-08T16:36:22.860Z,27.67
2018-05-08T16:38:51.901Z,27.83
2018-05-08T16:41:20.197Z,26.63
2018-05-08T16:43:48.484Z,24.63
2018-05-08T16:46:16.857Z,21.97
2018-05-08T16:48:45.159Z,25.60
2018-05-08T16:51:13.408Z,22.73
2018-05-08T16:53:41.674Z,25.73
2018-05-08T16:56:09.876Z,19.53
2018-05-08T16:58:38.254Z,16.67
2018-05-08T17:01:06.518Z,19.33
2018-05-08T17:03:34.812Z,16.80
2018-05-08T17:06:03.024Z,15.43
2018-05-08T17:08:32.015Z,15.57
2018-05-08T17:11:00.359Z,12.77
2018-05-08T17:13:28.591Z,17.37
2018-05-08T17:15:57.638Z,15.87
2018-05-08T17:18:25.882Z,19.60
2018-05-08T17:20:54.300Z,14.53
2018-05-08T17:23:22.753Z,9.97
2018-05-08T17:25:51.612Z,11.43
2018-05-08T17:28:19.872Z,11.63
2018-05-08T17:30:48.121Z,8.23
2018-05-08T17:33:16.491Z,12.40
2018-05-08T17:35:44.787Z,9.57
2018-05-08T17:38:12.983Z,13.00
2018-05-08T17:40:42.735Z,7.50
2018-05-08T17:43:10.961Z,8.87
2018-05-08T17:45:39.176Z,9.57
2018-05-08T17:48:07.472Z,9.43
2018-05-08T17:50:36.425Z,9.00
2018-05-08T17:53:04.691Z,10.23
2018-05-08T17:55:33.058Z,10.80
2018-05-08T17:58:01.344Z,10.90
2018-05-08T18:00:30.375Z,7.67
2018-05-08T18:02:58.614Z,9.73
2018-05-08T18:05:26.905Z,12.03
2018-05-08T18:07:56.794Z,11.30
2018-05-08T18:10:25.017Z,15.60
2018-05-08T18:12:54.020Z,13.47
2018-05-08T18:15:23.073Z,12.90
2018-05-08T18:17:51.455Z,16.50
2018-05-08T18:20:20.505Z,13.47
2018-05-08T18:22:49.476Z,13.80
2018-05-08T18:25:17.710Z,16.97
2018-05-08T18:27:46.010Z,16.20
2018-05-08T18:30:14.400Z,16.87
2018-05-08T18:32:43.176Z,23.30
2018-05-08T18:35:11.540Z,23.37
2018-05-08T18:37:39.788Z,20.13
2018-05-08T18:40:08.040Z,16.23
2018-05-08T18:42:37.105Z,21.77
2018-05-08T18:45:05.583Z,18.70
2018-05-08T18:47:33.912Z,18.43
2018-05-08T18:50:02.171Z,19.17
2018-05-08T18:52:31.917Z,22.07
2018-05-08T18:55:00.924Z,22.83
2018-05-08T18:57:29.239Z,22.33
2018-05-08T19:00:03.081Z,25.03
2018-05-08T19:02:31.535Z,24.13
2018-05-08T19:04:59.838Z,21.23
2018-05-08T19:07:28.089Z,18.77
2018-05-08T19:09:56.412Z,22.73
2018-05-08T19:12:25.416Z,19.67
2018-05-08T19:14:59.444Z,22.00
2018-05-08T19:17:27.752Z,22.90
2018-05-08T19:20:04.023Z,20.23
2018-05-08T19:22:32.312Z,23.63
2018-05-08T19:25:00.536Z,24.10
2018-05-08T19:27:29.267Z,23.87
2018-05-08T19:30:08.296Z,24.00
2018-05-08T19:32:36.560Z,24.03
2018-05-08T19:35:10.483Z,24.00
2018-05-08T19:37:44.401Z,23.87
2018-05-08T19:40:12.696Z,23.20
2018-05-08T19:42:40.928Z,20.67
2018-05-08T19:45:09.164Z,22.57
2018-05-08T19:47:43.023Z,26.20
2018-05-08T19:50:12.039Z,27.77
2018-05-08T19:52:41.338Z,32.87
2018-05-08T19:55:09.534Z,27.97
2018-05-08T19:57:37.876Z,35.53
2018-05-08T20:00:06.617Z,28.10
2018-05-08T20:02:34.837Z,34.43
2018-05-08T20:05:03.243Z,33.67
2018-05-08T20:07:31.476Z,36.37
2018-05-08T20:09:59.948Z,38.73
2018-05-08T20:12:28.200Z,39.73
2018-05-08T20:14:57.296Z,41.97
2018-05-08T20:17:25.515Z,39.30
2018-05-08T20:19:53.761Z,40.70
2018-05-08T20:22:22.769Z,42.47
2018-05-08T20:24:51.798Z,40.60
2018-05-08T20:27:20.025Z,44.13
2018-05-08T20:29:48.467Z,47.50
2018-05-08T20:32:16.766Z,42.27
2018-05-08T20:34:45.291Z,40.70
2018-05-08T20:37:17.228Z,47.33
2018-05-08T20:39:46.173Z,47.03
2018-05-08T20:42:14.416Z,45.10
2018-05-08T20:44:42.851Z,45.43
2018-05-08T20:47:11.128Z,45.47
2018-05-08T20:49:39.370Z,48.30
2018-05-08T20:52:07.622Z,46.73
2018-05-08T20:54:38.887Z,49.37
2018-05-08T20:57:10.097Z,53.00
2018-05-08T20:59:38.475Z,55.57
2018-05-08T21:02:08.257Z,56.30
2018-05-08T21:04:36.521Z,59.87
2018-05-08T21:07:04.744Z,55.70
2018-05-08T21:09:33.779Z,61.80
2018-05-08T21:12:02.822Z,56.20
2018-05-08T21:14:31.169Z,57.23
2018-05-08T21:16:59.399Z,57.33
2018-05-08T21:19:27.628Z,54.20
2018-05-08T21:21:55.935Z,54.10
2018-05-08T21:24:24.206Z,53.10
2018-05-08T21:26:52.475Z,53.13
2018-05-08T21:29:26.352Z,56.43
2018-05-08T21:31:55.395Z,56.63
2018-05-08T21:34:23.799Z,59.30
2018-05-08T21:36:52.779Z,54.20
2018-05-08T21:39:21.906Z,55.73
2018-05-08T21:41:51.280Z,57.10
2018-05-08T21:44:20.129Z,63.93
2018-05-08T21:46:49.150Z,54.53
2018-05-08T21:49:17.377Z,56.13
2018-05-08T21:51:45.642Z,57.77
2018-05-08T21:54:15.550Z,61.73
2018-05-08T21:56:43.911Z,60.27
2018-05-08T21:59:12.193Z,62.60
2018-05-08T22:01:40.594Z,64.30
2018-05-08T22:04:10.343Z,59.47
2018-05-08T22:06:39.375Z,63.83
2018-05-08T22:09:07.765Z,65.67
2018-05-08T22:11:36.025Z,59.13
2018-05-08T22:14:04.275Z,59.70
2018-05-08T22:16:33.304Z,73.27
2018-05-08T22:19:01.689Z,71.83
2018-05-08T22:21:30.064Z,64.40
2018-05-08T22:23:58.360Z,66.07
2018-05-08T22:26:27.206Z,60.33
2018-05-08T22:28:55.514Z,64.43
2018-05-08T22:31:23.752Z,65.30
2018-05-08T22:33:52.762Z,69.30
2018-05-08T22:36:21.203Z,64.20
2018-05-08T22:38:50.180Z,82.90
2018-05-08T22:41:18.438Z,74.23
2018-05-08T22:43:46.700Z,69.13
2018-05-08T22:46:14.948Z,76.97
2018-05-08T22:48:43.992Z,76.90
2018-05-08T22:51:12.284Z,67.47
2018-05-08T22:53:40.560Z,70.10
2018-05-08T22:56:08.801Z,74.07
2018-05-08T22:58:37.042Z,78.73
2018-05-08T23:01:08.082Z,72.77
2018-05-08T23:03:36.424Z,74.93
2018-05-08T23:06:04.654Z,70.43
2018-05-08T23:08:33.711Z,70.97
2018-05-08T23:11:03.525Z,80.43
2018-05-08T23:13:31.772Z,70.13
2018-05-08T23:16:00.291Z,81.63
2018-05-08T23:18:28.501Z,89.27
2018-05-08T23:20:58.383Z,81.53
2018-05-08T23:23:26.606Z,85.47
2018-05-08T23:25:54.845Z,85.37
2018-05-08T23:28:23.107Z,96.13
2018-05-08T23:30:52.608Z,90.00
2018-05-08T23:33:20.908Z,85.40
2018-05-08T23:35:49.270Z,89.63
2018-05-08T23:38:18.254Z,85.00
2018-05-08T23:40:46.543Z,84.53
2018-05-08T23:43:14.781Z,94.03
2018-05-08T23:45:43.747Z,92.47
2018-05-08T23:48:12.820Z,93.73
2018-05-08T23:50:41.063Z,89.90
2018-05-08T23:53:10.110Z,94.97
2018-05-08T23:55:38.348Z,84.13
2018-05-08T23:58:06.641Z,80.60
